sensor_id;sensor_type;location;lat;lon;timestamp;temperature;humidity
66835;HTU21D;53743;51.100;5.874;2024-03-17T00:00:31;7.99;84.16
66835;HTU21D;53743;51.100;5.874;2024-03-17T00:01:32;8.02;84.13
66835;HTU21D;53743;51.100;5.874;2024-03-17T00:02:36;8.03;84.18
66835;HTU21D;53743;51.100;5.874;2024-03-17T00:03:37;8.04;84.19
66835;HTU21D;53743;51.100;5.874;2024-03-17T00:04:38;8.06;84.24
66835;HTU21D;53743;51.100;5.874;2024-03-17T00:05:40;8.07;83.97
66835;HTU21D;53743;51.100;5.874;2024-03-17T00:06:41;8.07;84.23
66835;HTU21D;53743;51.100;5.874;2024-03-17T00:07:43;8.07;83.81
66835;HTU21D;53743;51.100;5.874;2024-03-17T00:08:44;8.04;84.03
66835;HTU21D;53743;51.100;5.874;2024-03-17T00:09:46;8.03;84.07
66835;HTU21D;53743;51.100;5.874;2024-03-17T00:10:50;8.01;84.52
66835;HTU21D;53743;51.100;5.874;2024-03-17T00:11:51;8.01;84.35
66835;HTU21D;53743;51.100;5.874;2024-03-17T00:12:52;8.03;83.93
66835;HTU21D;53743;51.100;5.874;2024-03-17T00:13:54;8.05;83.80
66835;HTU21D;53743;51.100;5.874;2024-03-17T00:14:55;8.04;84.07
66835;HTU21D;53743;51.100;5.874;2024-03-17T00:15:57;8.04;84.19
66835;HTU21D;53743;51.100;5.874;2024-03-17T00:16:58;8.04;83.95
66835;HTU21D;53743;51.100;5.874;2024-03-17T00:18:02;8.05;83.93
66835;HTU21D;53743;51.100;5.874;2024-03-17T00:19:03;8.08;83.94
66835;HTU21D;53743;51.100;5.874;2024-03-17T00:20:05;8.08;83.58
66835;HTU21D;53743;51.100;5.874;2024-03-17T00:21:19;8.08;83.72
66835;HTU21D;53743;51.100;5.874;2024-03-17T00:22:20;8.09;83.54
66835;HTU21D;53743;51.100;5.874;2024-03-17T00:23:21;8.07;83.55
66835;HTU21D;53743;51.100;5.874;2024-03-17T00:24:23;8.09;83.68
66835;HTU21D;53743;51.100;5.874;2024-03-17T00:25:24;8.08;83.51
66835;HTU21D;53743;51.100;5.874;2024-03-17T00:26:25;8.08;83.66
66835;HTU21D;53743;51.100;5.874;2024-03-17T00:27:28;8.08;83.79
66835;HTU21D;53743;51.100;5.874;2024-03-17T00:28:30;8.06;83.59
66835;HTU21D;53743;51.100;5.874;2024-03-17T00:29:31;8.04;83.88
66835;HTU21D;53743;51.100;5.874;2024-03-17T00:30:32;8.03;84.10
66835;HTU21D;53743;51.100;5.874;2024-03-17T00:31:34;7.96;84.48
66835;HTU21D;53743;51.100;5.874;2024-03-17T00:32:35;7.91;84.96
66835;HTU21D;53743;51.100;5.874;2024-03-17T00:33:38;7.88;85.30
66835;HTU21D;53743;51.100;5.874;2024-03-17T00:34:40;7.91;85.12
66835;HTU21D;53743;51.100;5.874;2024-03-17T00:35:41;7.92;85.04
66835;HTU21D;53743;51.100;5.874;2024-03-17T00:36:42;7.92;84.77
66835;HTU21D;53743;51.100;5.874;2024-03-17T00:37:43;7.90;85.00
66835;HTU21D;53743;51.100;5.874;2024-03-17T00:38:45;7.90;85.24
66835;HTU21D;53743;51.100;5.874;2024-03-17T00:39:46;7.94;85.06
66835;HTU21D;53743;51.100;5.874;2024-03-17T00:40:47;7.90;84.87
66835;HTU21D;53743;51.100;5.874;2024-03-17T00:41:49;7.89;85.29
66835;HTU21D;53743;51.100;5.874;2024-03-17T00:42:51;7.91;85.44
66835;HTU21D;53743;51.100;5.874;2024-03-17T00:43:54;7.93;85.49
66835;HTU21D;53743;51.100;5.874;2024-03-17T00:44:55;7.98;85.56
66835;HTU21D;53743;51.100;5.874;2024-03-17T00:46:00;8.01;85.59
66835;HTU21D;53743;51.100;5.874;2024-03-17T00:47:01;8.01;85.48
66835;HTU21D;53743;51.100;5.874;2024-03-17T00:48:02;8.05;85.28
66835;HTU21D;53743;51.100;5.874;2024-03-17T00:49:06;8.07;85.22
66835;HTU21D;53743;51.100;5.874;2024-03-17T00:50:08;8.11;85.18
66835;HTU21D;53743;51.100;5.874;2024-03-17T00:51:12;8.12;84.74
66835;HTU21D;53743;51.100;5.874;2024-03-17T00:52:13;8.12;85.03
66835;HTU21D;53743;51.100;5.874;2024-03-17T00:53:14;8.14;84.99
66835;HTU21D;53743;51.100;5.874;2024-03-17T00:54:15;8.15;84.95
66835;HTU21D;53743;51.100;5.874;2024-03-17T00:55:18;8.16;84.92
66835;HTU21D;53743;51.100;5.874;2024-03-17T00:56:20;8.19;84.52
66835;HTU21D;53743;51.100;5.874;2024-03-17T00:57:21;8.22;84.42
66835;HTU21D;53743;51.100;5.874;2024-03-17T00:58:22;8.21;84.22
66835;HTU21D;53743;51.100;5.874;2024-03-17T00:59:23;8.20;84.19
66835;HTU21D;53743;51.100;5.874;2024-03-17T01:00:25;8.18;84.32
66835;HTU21D;53743;51.100;5.874;2024-03-17T01:01:26;8.16;84.51
66835;HTU21D;53743;51.100;5.874;2024-03-17T01:02:27;8.16;84.62
66835;HTU21D;53743;51.100;5.874;2024-03-17T01:03:29;8.16;84.55
66835;HTU21D;53743;51.100;5.874;2024-03-17T01:04:31;8.18;84.36
66835;HTU21D;53743;51.100;5.874;2024-03-17T01:05:34;8.16;84.61
66835;HTU21D;53743;51.100;5.874;2024-03-17T01:06:42;8.17;84.49
66835;HTU21D;53743;51.100;5.874;2024-03-17T01:07:44;8.15;84.18
66835;HTU21D;53743;51.100;5.874;2024-03-17T01:08:45;8.14;84.69
66835;HTU21D;53743;51.100;5.874;2024-03-17T01:09:47;8.13;84.61
66835;HTU21D;53743;51.100;5.874;2024-03-17T01:10:49;8.14;84.68
66835;HTU21D;53743;51.100;5.874;2024-03-17T01:11:51;8.12;84.74
66835;HTU21D;53743;51.100;5.874;2024-03-17T01:12:52;8.08;84.69
66835;HTU21D;53743;51.100;5.874;2024-03-17T01:13:53;8.09;84.95
66835;HTU21D;53743;51.100;5.874;2024-03-17T01:14:55;8.11;84.41
66835;HTU21D;53743;51.100;5.874;2024-03-17T01:15:56;8.11;84.64
66835;HTU21D;53743;51.100;5.874;2024-03-17T01:16:59;8.09;84.39
66835;HTU21D;53743;51.100;5.874;2024-03-17T01:18:02;8.06;84.68
66835;HTU21D;53743;51.100;5.874;2024-03-17T01:19:04;8.06;84.58
66835;HTU21D;53743;51.100;5.874;2024-03-17T01:20:08;8.07;84.20
66835;HTU21D;53743;51.100;5.874;2024-03-17T01:21:11;8.00;84.67
66835;HTU21D;53743;51.100;5.874;2024-03-17T01:22:12;7.97;84.76
66835;HTU21D;53743;51.100;5.874;2024-03-17T01:23:13;7.94;84.58
66835;HTU21D;53743;51.100;5.874;2024-03-17T01:24:16;7.91;85.07
66835;HTU21D;53743;51.100;5.874;2024-03-17T01:25:18;7.92;84.95
66835;HTU21D;53743;51.100;5.874;2024-03-17T01:26:20;7.89;85.24
66835;HTU21D;53743;51.100;5.874;2024-03-17T01:27:21;7.90;85.16
66835;HTU21D;53743;51.100;5.874;2024-03-17T01:28:22;7.88;84.94
66835;HTU21D;53743;51.100;5.874;2024-03-17T01:29:24;7.89;85.11
66835;HTU21D;53743;51.100;5.874;2024-03-17T01:30:25;7.89;85.04
66835;HTU21D;53743;51.100;5.874;2024-03-17T01:31:26;7.87;85.18
66835;HTU21D;53743;51.100;5.874;2024-03-17T01:32:27;7.89;85.01
66835;HTU21D;53743;51.100;5.874;2024-03-17T01:33:29;7.89;85.08
66835;HTU21D;53743;51.100;5.874;2024-03-17T01:34:30;7.89;84.77
66835;HTU21D;53743;51.100;5.874;2024-03-17T01:35:32;7.92;84.77
66835;HTU21D;53743;51.100;5.874;2024-03-17T01:36:35;7.94;84.58
66835;HTU21D;53743;51.100;5.874;2024-03-17T01:37:36;7.94;84.47
66835;HTU21D;53743;51.100;5.874;2024-03-17T01:38:37;7.97;84.23
66835;HTU21D;53743;51.100;5.874;2024-03-17T01:39:38;7.97;84.13
66835;HTU21D;53743;51.100;5.874;2024-03-17T01:40:40;7.97;84.01
66835;HTU21D;53743;51.100;5.874;2024-03-17T01:41:41;7.97;84.07
66835;HTU21D;53743;51.100;5.874;2024-03-17T01:42:42;7.96;83.85
66835;HTU21D;53743;51.100;5.874;2024-03-17T01:43:43;7.97;83.94
66835;HTU21D;53743;51.100;5.874;2024-03-17T01:44:45;7.97;83.65
66835;HTU21D;53743;51.100;5.874;2024-03-17T01:45:47;7.96;83.70
66835;HTU21D;53743;51.100;5.874;2024-03-17T01:46:50;7.96;83.61
66835;HTU21D;53743;51.100;5.874;2024-03-17T01:47:51;7.98;83.61
66835;HTU21D;53743;51.100;5.874;2024-03-17T01:48:54;7.93;83.49
66835;HTU21D;53743;51.100;5.874;2024-03-17T01:49:55;7.94;83.45
66835;HTU21D;53743;51.100;5.874;2024-03-17T01:50:58;7.94;83.45
66835;HTU21D;53743;51.100;5.874;2024-03-17T01:51:59;7.93;83.49
66835;HTU21D;53743;51.100;5.874;2024-03-17T01:53:05;7.92;83.14
66835;HTU21D;53743;51.100;5.874;2024-03-17T01:54:08;7.90;83.58
66835;HTU21D;53743;51.100;5.874;2024-03-17T01:55:10;7.90;83.53
66835;HTU21D;53743;51.100;5.874;2024-03-17T01:56:11;7.91;83.41
66835;HTU21D;53743;51.100;5.874;2024-03-17T01:57:13;7.90;83.24
66835;HTU21D;53743;51.100;5.874;2024-03-17T01:58:14;7.89;83.31
66835;HTU21D;53743;51.100;5.874;2024-03-17T01:59:16;7.86;83.26
66835;HTU21D;53743;51.100;5.874;2024-03-17T02:00:18;7.86;83.36
66835;HTU21D;53743;51.100;5.874;2024-03-17T02:01:19;7.86;83.32
66835;HTU21D;53743;51.100;5.874;2024-03-17T02:02:20;7.86;83.26
66835;HTU21D;53743;51.100;5.874;2024-03-17T02:03:22;7.84;83.32
66835;HTU21D;53743;51.100;5.874;2024-03-17T02:04:24;7.85;83.48
66835;HTU21D;53743;51.100;5.874;2024-03-17T02:05:26;7.89;83.23
66835;HTU21D;53743;51.100;5.874;2024-03-17T02:06:29;7.88;83.23
66835;HTU21D;53743;51.100;5.874;2024-03-17T02:07:31;7.89;83.30
66835;HTU21D;53743;51.100;5.874;2024-03-17T02:08:46;7.87;83.29
66835;HTU21D;53743;51.100;5.874;2024-03-17T02:09:48;7.89;83.30
66835;HTU21D;53743;51.100;5.874;2024-03-17T02:10:53;7.89;83.22
66835;HTU21D;53743;51.100;5.874;2024-03-17T02:11:55;7.89;83.36
66835;HTU21D;53743;51.100;5.874;2024-03-17T02:12:56;7.89;83.29
66835;HTU21D;53743;51.100;5.874;2024-03-17T02:13:58;7.91;83.08
66835;HTU21D;53743;51.100;5.874;2024-03-17T02:15:02;7.94;83.04
66835;HTU21D;53743;51.100;5.874;2024-03-17T02:16:06;7.93;83.06
66835;HTU21D;53743;51.100;5.874;2024-03-17T02:17:06;7.94;83.05
66835;HTU21D;53743;51.100;5.874;2024-03-17T02:18:08;7.94;82.93
66835;HTU21D;53743;51.100;5.874;2024-03-17T02:19:09;7.93;83.04
66835;HTU21D;53743;51.100;5.874;2024-03-17T02:20:11;7.91;83.25
66835;HTU21D;53743;51.100;5.874;2024-03-17T02:21:12;7.94;83.18
66835;HTU21D;53743;51.100;5.874;2024-03-17T02:22:15;7.99;82.95
66835;HTU21D;53743;51.100;5.874;2024-03-17T02:23:17;7.98;83.16
66835;HTU21D;53743;51.100;5.874;2024-03-17T02:24:19;7.98;82.98
66835;HTU21D;53743;51.100;5.874;2024-03-17T02:25:20;7.93;83.10
66835;HTU21D;53743;51.100;5.874;2024-03-17T02:26:23;7.92;83.47
66835;HTU21D;53743;51.100;5.874;2024-03-17T02:27:26;7.91;83.62
66835;HTU21D;53743;51.100;5.874;2024-03-17T02:28:27;7.96;83.81
66835;HTU21D;53743;51.100;5.874;2024-03-17T02:29:28;7.99;83.86
66835;HTU21D;53743;51.100;5.874;2024-03-17T02:30:30;8.02;83.62
66835;HTU21D;53743;51.100;5.874;2024-03-17T02:31:31;8.05;83.65
66835;HTU21D;53743;51.100;5.874;2024-03-17T02:32:32;8.07;83.70
66835;HTU21D;53743;51.100;5.874;2024-03-17T02:33:34;8.13;83.61
66835;HTU21D;53743;51.100;5.874;2024-03-17T02:34:37;8.17;83.43
66835;HTU21D;53743;51.100;5.874;2024-03-17T02:35:39;8.19;83.42
66835;HTU21D;53743;51.100;5.874;2024-03-17T02:36:40;8.22;82.84
66835;HTU21D;53743;51.100;5.874;2024-03-17T02:37:42;8.23;82.42
66835;HTU21D;53743;51.100;5.874;2024-03-17T02:38:44;8.23;82.35
66835;HTU21D;53743;51.100;5.874;2024-03-17T02:40:05;8.21;82.47
66835;HTU21D;53743;51.100;5.874;2024-03-17T02:41:07;8.20;82.66
66835;HTU21D;53743;51.100;5.874;2024-03-17T02:42:10;8.24;82.45
66835;HTU21D;53743;51.100;5.874;2024-03-17T02:43:12;8.23;82.20
66835;HTU21D;53743;51.100;5.874;2024-03-17T02:44:13;8.23;82.01
66835;HTU21D;53743;51.100;5.874;2024-03-17T02:45:15;8.24;82.04
66835;HTU21D;53743;51.100;5.874;2024-03-17T02:46:19;8.23;81.75
66835;HTU21D;53743;51.100;5.874;2024-03-17T02:47:21;8.20;82.05
66835;HTU21D;53743;51.100;5.874;2024-03-17T02:48:22;8.18;82.28
66835;HTU21D;53743;51.100;5.874;2024-03-17T02:49:24;8.16;82.39
66835;HTU21D;53743;51.100;5.874;2024-03-17T02:50:27;8.15;82.53
66835;HTU21D;53743;51.100;5.874;2024-03-17T02:51:28;8.16;82.71
66835;HTU21D;53743;51.100;5.874;2024-03-17T02:52:30;8.19;82.15
66835;HTU21D;53743;51.100;5.874;2024-03-17T02:53:32;8.20;82.12
66835;HTU21D;53743;51.100;5.874;2024-03-17T02:54:35;8.20;82.02
66835;HTU21D;53743;51.100;5.874;2024-03-17T02:55:36;8.26;81.96
66835;HTU21D;53743;51.100;5.874;2024-03-17T02:56:38;8.26;81.25
66835;HTU21D;53743;51.100;5.874;2024-03-17T02:57:39;8.28;81.38
66835;HTU21D;53743;51.100;5.874;2024-03-17T02:58:41;8.27;81.41
66835;HTU21D;53743;51.100;5.874;2024-03-17T02:59:43;8.28;81.42
66835;HTU21D;53743;51.100;5.874;2024-03-17T03:00:45;8.30;81.04
66835;HTU21D;53743;51.100;5.874;2024-03-17T03:01:47;8.31;81.00
66835;HTU21D;53743;51.100;5.874;2024-03-17T03:02:48;8.30;81.00
66835;HTU21D;53743;51.100;5.874;2024-03-17T03:03:50;8.30;80.96
66835;HTU21D;53743;51.100;5.874;2024-03-17T03:04:52;8.30;80.92
66835;HTU21D;53743;51.100;5.874;2024-03-17T03:05:54;8.33;80.75
66835;HTU21D;53743;51.100;5.874;2024-03-17T03:06:57;8.32;80.85
66835;HTU21D;53743;51.100;5.874;2024-03-17T03:07:59;8.32;80.91
66835;HTU21D;53743;51.100;5.874;2024-03-17T03:09:01;8.31;80.86
66835;HTU21D;53743;51.100;5.874;2024-03-17T03:10:06;8.35;80.44
66835;HTU21D;53743;51.100;5.874;2024-03-17T03:11:09;8.34;80.60
66835;HTU21D;53743;51.100;5.874;2024-03-17T03:12:12;8.36;80.55
66835;HTU21D;53743;51.100;5.874;2024-03-17T03:13:13;8.36;80.24
66835;HTU21D;53743;51.100;5.874;2024-03-17T03:14:15;8.39;80.17
66835;HTU21D;53743;51.100;5.874;2024-03-17T03:15:16;8.42;80.19
66835;HTU21D;53743;51.100;5.874;2024-03-17T03:16:19;8.41;80.46
66835;HTU21D;53743;51.100;5.874;2024-03-17T03:17:20;8.39;80.37
66835;HTU21D;53743;51.100;5.874;2024-03-17T03:18:22;8.43;80.28
66835;HTU21D;53743;51.100;5.874;2024-03-17T03:19:23;8.44;80.11
66835;HTU21D;53743;51.100;5.874;2024-03-17T03:20:25;8.47;79.86
66835;HTU21D;53743;51.100;5.874;2024-03-17T03:21:26;8.47;79.94
66835;HTU21D;53743;51.100;5.874;2024-03-17T03:22:28;8.46;79.94
66835;HTU21D;53743;51.100;5.874;2024-03-17T03:23:29;8.46;79.77
66835;HTU21D;53743;51.100;5.874;2024-03-17T03:24:33;8.46;79.81
66835;HTU21D;53743;51.100;5.874;2024-03-17T03:25:34;8.47;79.74
66835;HTU21D;53743;51.100;5.874;2024-03-17T03:26:36;8.48;79.72
66835;HTU21D;53743;51.100;5.874;2024-03-17T03:27:37;8.49;79.66
66835;HTU21D;53743;51.100;5.874;2024-03-17T03:28:39;8.51;79.61
66835;HTU21D;53743;51.100;5.874;2024-03-17T03:29:40;8.52;79.41
66835;HTU21D;53743;51.100;5.874;2024-03-17T03:30:42;8.52;79.22
66835;HTU21D;53743;51.100;5.874;2024-03-17T03:31:43;8.52;79.26
66835;HTU21D;53743;51.100;5.874;2024-03-17T03:32:45;8.52;79.07
66835;HTU21D;53743;51.100;5.874;2024-03-17T03:33:46;8.52;79.06
66835;HTU21D;53743;51.100;5.874;2024-03-17T03:34:48;8.50;79.08
66835;HTU21D;53743;51.100;5.874;2024-03-17T03:35:50;8.49;79.03
66835;HTU21D;53743;51.100;5.874;2024-03-17T03:36:51;8.48;79.19
66835;HTU21D;53743;51.100;5.874;2024-03-17T03:37:53;8.46;79.03
66835;HTU21D;53743;51.100;5.874;2024-03-17T03:38:54;8.43;78.97
66835;HTU21D;53743;51.100;5.874;2024-03-17T03:39:58;8.43;79.04
66835;HTU21D;53743;51.100;5.874;2024-03-17T03:41:06;8.42;79.14
66835;HTU21D;53743;51.100;5.874;2024-03-17T03:42:09;8.39;79.11
66835;HTU21D;53743;51.100;5.874;2024-03-17T03:43:10;8.37;79.04
66835;HTU21D;53743;51.100;5.874;2024-03-17T03:44:13;8.38;79.11
66835;HTU21D;53743;51.100;5.874;2024-03-17T03:45:14;8.38;79.01
66835;HTU21D;53743;51.100;5.874;2024-03-17T03:46:16;8.37;79.08
66835;HTU21D;53743;51.100;5.874;2024-03-17T03:47:18;8.36;79.30
66835;HTU21D;53743;51.100;5.874;2024-03-17T03:48:20;8.38;78.98
66835;HTU21D;53743;51.100;5.874;2024-03-17T03:49:21;8.36;79.07
66835;HTU21D;53743;51.100;5.874;2024-03-17T03:50:23;8.34;79.33
66835;HTU21D;53743;51.100;5.874;2024-03-17T03:51:24;8.33;79.39
66835;HTU21D;53743;51.100;5.874;2024-03-17T03:52:26;8.35;79.37
66835;HTU21D;53743;51.100;5.874;2024-03-17T03:53:27;8.36;79.33
66835;HTU21D;53743;51.100;5.874;2024-03-17T03:54:29;8.39;79.07
66835;HTU21D;53743;51.100;5.874;2024-03-17T03:55:32;8.37;79.19
66835;HTU21D;53743;51.100;5.874;2024-03-17T03:56:34;8.39;79.14
66835;HTU21D;53743;51.100;5.874;2024-03-17T03:57:37;8.39;79.22
66835;HTU21D;53743;51.100;5.874;2024-03-17T03:58:40;8.42;79.44
66835;HTU21D;53743;51.100;5.874;2024-03-17T03:59:43;8.43;79.21
66835;HTU21D;53743;51.100;5.874;2024-03-17T04:00:44;8.43;79.26
66835;HTU21D;53743;51.100;5.874;2024-03-17T04:01:46;8.44;78.96
66835;HTU21D;53743;51.100;5.874;2024-03-17T04:02:51;8.48;78.66
66835;HTU21D;53743;51.100;5.874;2024-03-17T04:03:52;8.46;78.62
66835;HTU21D;53743;51.100;5.874;2024-03-17T04:04:54;8.45;78.69
66835;HTU21D;53743;51.100;5.874;2024-03-17T04:06:02;8.46;78.72
66835;HTU21D;53743;51.100;5.874;2024-03-17T04:07:05;8.45;78.74
66835;HTU21D;53743;51.100;5.874;2024-03-17T04:08:08;8.47;78.85
66835;HTU21D;53743;51.100;5.874;2024-03-17T04:09:09;8.45;78.87
66835;HTU21D;53743;51.100;5.874;2024-03-17T04:10:12;8.46;78.88
66835;HTU21D;53743;51.100;5.874;2024-03-17T04:11:15;8.46;78.76
66835;HTU21D;53743;51.100;5.874;2024-03-17T04:12:17;8.47;78.53
66835;HTU21D;53743;51.100;5.874;2024-03-17T04:13:19;8.46;78.82
66835;HTU21D;53743;51.100;5.874;2024-03-17T04:14:21;8.44;78.72
66835;HTU21D;53743;51.100;5.874;2024-03-17T04:15:22;8.43;78.75
66835;HTU21D;53743;51.100;5.874;2024-03-17T04:16:24;8.37;79.00
66835;HTU21D;53743;51.100;5.874;2024-03-17T04:17:26;8.39;78.97
66835;HTU21D;53743;51.100;5.874;2024-03-17T04:18:28;8.38;79.02
66835;HTU21D;53743;51.100;5.874;2024-03-17T04:19:30;8.37;79.00
66835;HTU21D;53743;51.100;5.874;2024-03-17T04:20:32;8.39;79.08
66835;HTU21D;53743;51.100;5.874;2024-03-17T04:21:33;8.38;79.03
66835;HTU21D;53743;51.100;5.874;2024-03-17T04:22:36;8.37;79.15
66835;HTU21D;53743;51.100;5.874;2024-03-17T04:23:37;8.39;79.21
66835;HTU21D;53743;51.100;5.874;2024-03-17T04:24:38;8.41;78.87
66835;HTU21D;53743;51.100;5.874;2024-03-17T04:25:40;8.43;78.90
66835;HTU21D;53743;51.100;5.874;2024-03-17T04:26:44;8.44;78.82
66835;HTU21D;53743;51.100;5.874;2024-03-17T04:27:46;8.47;78.95
66835;HTU21D;53743;51.100;5.874;2024-03-17T04:28:47;8.46;78.84
66835;HTU21D;53743;51.100;5.874;2024-03-17T04:29:49;8.46;78.66
66835;HTU21D;53743;51.100;5.874;2024-03-17T04:30:50;8.47;78.59
66835;HTU21D;53743;51.100;5.874;2024-03-17T04:31:52;8.47;78.26
66835;HTU21D;53743;51.100;5.874;2024-03-17T04:32:53;8.46;78.47
66835;HTU21D;53743;51.100;5.874;2024-03-17T04:33:55;8.42;78.50
66835;HTU21D;53743;51.100;5.874;2024-03-17T04:34:57;8.35;78.98
66835;HTU21D;53743;51.100;5.874;2024-03-17T04:36:00;8.35;78.92
66835;HTU21D;53743;51.100;5.874;2024-03-17T04:37:02;8.35;78.89
66835;HTU21D;53743;51.100;5.874;2024-03-17T04:38:04;8.35;78.67
66835;HTU21D;53743;51.100;5.874;2024-03-17T04:39:07;8.34;78.60
66835;HTU21D;53743;51.100;5.874;2024-03-17T04:40:09;8.30;78.83
66835;HTU21D;53743;51.100;5.874;2024-03-17T04:41:15;8.27;78.99
66835;HTU21D;53743;51.100;5.874;2024-03-17T04:42:18;8.24;79.06
66835;HTU21D;53743;51.100;5.874;2024-03-17T04:43:20;8.23;78.88
66835;HTU21D;53743;51.100;5.874;2024-03-17T04:44:21;8.19;79.21
66835;HTU21D;53743;51.100;5.874;2024-03-17T04:45:23;8.18;79.01
66835;HTU21D;53743;51.100;5.874;2024-03-17T04:46:24;8.20;79.06
66835;HTU21D;53743;51.100;5.874;2024-03-17T04:47:26;8.17;78.93
66835;HTU21D;53743;51.100;5.874;2024-03-17T04:48:27;8.11;79.33
66835;HTU21D;53743;51.100;5.874;2024-03-17T04:49:28;8.08;79.45
66835;HTU21D;53743;51.100;5.874;2024-03-17T04:50:30;8.08;79.60
66835;HTU21D;53743;51.100;5.874;2024-03-17T04:51:32;8.06;79.81
66835;HTU21D;53743;51.100;5.874;2024-03-17T04:52:35;8.07;79.77
66835;HTU21D;53743;51.100;5.874;2024-03-17T04:53:36;8.04;79.82
66835;HTU21D;53743;51.100;5.874;2024-03-17T04:54:37;8.03;79.74
66835;HTU21D;53743;51.100;5.874;2024-03-17T04:55:39;7.99;79.85
66835;HTU21D;53743;51.100;5.874;2024-03-17T04:56:40;7.96;80.05
66835;HTU21D;53743;51.100;5.874;2024-03-17T04:57:43;7.96;80.19
66835;HTU21D;53743;51.100;5.874;2024-03-17T04:58:44;7.93;80.16
66835;HTU21D;53743;51.100;5.874;2024-03-17T04:59:46;7.89;80.29
66835;HTU21D;53743;51.100;5.874;2024-03-17T05:00:47;7.87;80.42
66835;HTU21D;53743;51.100;5.874;2024-03-17T05:01:48;7.85;80.43
66835;HTU21D;53743;51.100;5.874;2024-03-17T05:02:50;7.84;80.50
66835;HTU21D;53743;51.100;5.874;2024-03-17T05:03:51;7.84;80.44
66835;HTU21D;53743;51.100;5.874;2024-03-17T05:04:53;7.82;80.80
66835;HTU21D;53743;51.100;5.874;2024-03-17T05:05:58;7.82;80.62
66835;HTU21D;53743;51.100;5.874;2024-03-17T05:07:01;7.78;80.89
66835;HTU21D;53743;51.100;5.874;2024-03-17T05:08:03;7.81;80.63
66835;HTU21D;53743;51.100;5.874;2024-03-17T05:09:05;7.79;80.67
66835;HTU21D;53743;51.100;5.874;2024-03-17T05:10:07;7.78;80.74
66835;HTU21D;53743;51.100;5.874;2024-03-17T05:11:08;7.77;81.00
66835;HTU21D;53743;51.100;5.874;2024-03-17T05:12:12;7.76;80.62
66835;HTU21D;53743;51.100;5.874;2024-03-17T05:13:14;7.75;81.06
66835;HTU21D;53743;51.100;5.874;2024-03-17T05:14:15;7.76;80.69
66835;HTU21D;53743;51.100;5.874;2024-03-17T05:15:18;7.76;80.80
66835;HTU21D;53743;51.100;5.874;2024-03-17T05:16:19;7.77;80.75
66835;HTU21D;53743;51.100;5.874;2024-03-17T05:17:23;7.74;80.95
66835;HTU21D;53743;51.100;5.874;2024-03-17T05:18:25;7.74;80.81
66835;HTU21D;53743;51.100;5.874;2024-03-17T05:19:26;7.71;81.07
66835;HTU21D;53743;51.100;5.874;2024-03-17T05:20:28;7.70;81.33
66835;HTU21D;53743;51.100;5.874;2024-03-17T05:21:29;7.68;80.96
66835;HTU21D;53743;51.100;5.874;2024-03-17T05:22:31;7.65;81.58
66835;HTU21D;53743;51.100;5.874;2024-03-17T05:23:34;7.69;81.27
66835;HTU21D;53743;51.100;5.874;2024-03-17T05:24:36;7.70;81.20
66835;HTU21D;53743;51.100;5.874;2024-03-17T05:25:38;7.69;81.19
66835;HTU21D;53743;51.100;5.874;2024-03-17T05:26:39;7.65;81.40
66835;HTU21D;53743;51.100;5.874;2024-03-17T05:27:42;7.67;81.37
66835;HTU21D;53743;51.100;5.874;2024-03-17T05:28:45;7.67;81.20
66835;HTU21D;53743;51.100;5.874;2024-03-17T05:29:46;7.65;81.17
66835;HTU21D;53743;51.100;5.874;2024-03-17T05:30:48;7.65;81.45
66835;HTU21D;53743;51.100;5.874;2024-03-17T05:31:49;7.64;81.28
66835;HTU21D;53743;51.100;5.874;2024-03-17T05:32:52;7.61;81.65
66835;HTU21D;53743;51.100;5.874;2024-03-17T05:33:53;7.61;81.97
66835;HTU21D;53743;51.100;5.874;2024-03-17T05:34:55;7.61;81.92
66835;HTU21D;53743;51.100;5.874;2024-03-17T05:35:59;7.64;81.91
66835;HTU21D;53743;51.100;5.874;2024-03-17T05:37:02;7.62;81.84
66835;HTU21D;53743;51.100;5.874;2024-03-17T05:38:05;7.63;81.55
66835;HTU21D;53743;51.100;5.874;2024-03-17T05:39:06;7.60;81.97
66835;HTU21D;53743;51.100;5.874;2024-03-17T05:40:10;7.62;81.82
66835;HTU21D;53743;51.100;5.874;2024-03-17T05:41:13;7.71;81.64
66835;HTU21D;53743;51.100;5.874;2024-03-17T05:42:14;7.71;81.39
66835;HTU21D;53743;51.100;5.874;2024-03-17T05:43:16;7.71;81.39
66835;HTU21D;53743;51.100;5.874;2024-03-17T05:44:19;7.69;81.46
66835;HTU21D;53743;51.100;5.874;2024-03-17T05:45:21;7.65;81.62
66835;HTU21D;53743;51.100;5.874;2024-03-17T05:46:22;7.65;81.64
66835;HTU21D;53743;51.100;5.874;2024-03-17T05:47:23;7.67;81.54
66835;HTU21D;53743;51.100;5.874;2024-03-17T05:48:26;7.72;81.29
66835;HTU21D;53743;51.100;5.874;2024-03-17T05:49:27;7.68;81.14
66835;HTU21D;53743;51.100;5.874;2024-03-17T05:50:28;7.65;81.35
66835;HTU21D;53743;51.100;5.874;2024-03-17T05:51:30;7.64;81.59
66835;HTU21D;53743;51.100;5.874;2024-03-17T05:52:31;7.68;81.70
66835;HTU21D;53743;51.100;5.874;2024-03-17T05:53:34;7.67;81.68
66835;HTU21D;53743;51.100;5.874;2024-03-17T05:54:36;7.62;81.78
66835;HTU21D;53743;51.100;5.874;2024-03-17T05:55:38;7.64;81.76
66835;HTU21D;53743;51.100;5.874;2024-03-17T05:56:39;7.65;81.59
66835;HTU21D;53743;51.100;5.874;2024-03-17T05:57:41;7.71;81.68
66835;HTU21D;53743;51.100;5.874;2024-03-17T05:58:43;7.73;81.58
66835;HTU21D;53743;51.100;5.874;2024-03-17T05:59:46;7.73;81.52
66835;HTU21D;53743;51.100;5.874;2024-03-17T06:00:47;7.73;81.80
66835;HTU21D;53743;51.100;5.874;2024-03-17T06:01:48;7.72;81.81
66835;HTU21D;53743;51.100;5.874;2024-03-17T06:02:50;7.73;81.66
66835;HTU21D;53743;51.100;5.874;2024-03-17T06:03:51;7.82;81.44
66835;HTU21D;53743;51.100;5.874;2024-03-17T06:04:53;7.83;81.47
66835;HTU21D;53743;51.100;5.874;2024-03-17T06:05:55;7.83;81.25
66835;HTU21D;53743;51.100;5.874;2024-03-17T06:06:59;7.85;81.24
66835;HTU21D;53743;51.100;5.874;2024-03-17T06:08:02;7.85;81.08
66835;HTU21D;53743;51.100;5.874;2024-03-17T06:09:05;7.86;81.07
66835;HTU21D;53743;51.100;5.874;2024-03-17T06:10:10;7.88;80.98
66835;HTU21D;53743;51.100;5.874;2024-03-17T06:11:12;7.87;80.88
66835;HTU21D;53743;51.100;5.874;2024-03-17T06:12:14;7.84;80.97
66835;HTU21D;53743;51.100;5.874;2024-03-17T06:13:16;7.84;81.46
66835;HTU21D;53743;51.100;5.874;2024-03-17T06:14:18;7.87;80.87
66835;HTU21D;53743;51.100;5.874;2024-03-17T06:15:20;7.85;80.94
66835;HTU21D;53743;51.100;5.874;2024-03-17T06:16:24;7.85;81.48
66835;HTU21D;53743;51.100;5.874;2024-03-17T06:17:25;7.88;81.21
66835;HTU21D;53743;51.100;5.874;2024-03-17T06:18:28;7.88;81.38
66835;HTU21D;53743;51.100;5.874;2024-03-17T06:19:30;7.93;81.31
66835;HTU21D;53743;51.100;5.874;2024-03-17T06:20:32;8.01;81.04
66835;HTU21D;53743;51.100;5.874;2024-03-17T06:21:33;8.05;80.90
66835;HTU21D;53743;51.100;5.874;2024-03-17T06:22:35;8.12;80.81
66835;HTU21D;53743;51.100;5.874;2024-03-17T06:23:37;8.20;80.86
66835;HTU21D;53743;51.100;5.874;2024-03-17T06:24:41;8.30;80.24
66835;HTU21D;53743;51.100;5.874;2024-03-17T06:25:43;8.44;80.38
66835;HTU21D;53743;51.100;5.874;2024-03-17T06:26:47;8.61;79.85
66835;HTU21D;53743;51.100;5.874;2024-03-17T06:27:51;8.80;78.89
66835;HTU21D;53743;51.100;5.874;2024-03-17T06:28:52;8.98;77.70
66835;HTU21D;53743;51.100;5.874;2024-03-17T06:29:54;9.17;77.26
66835;HTU21D;53743;51.100;5.874;2024-03-17T06:30:58;9.37;75.70
66835;HTU21D;53743;51.100;5.874;2024-03-17T06:32:01;9.41;74.78